Time;durP1;ratioP1;P1;durP2;ratioP2;P2;SDS_P1;SDS_P2;PMS_P1;PMS_P2;Temp;Humidity;BMP_temperature;BMP_pressure;BME280_temperature;BME280_humidity;BME280_pressure;Samples;Min_cycle;Max_cycle;Signal;HPM_P1;HPM_P2
2021/12/01 00:02:05;;;;;;;12.63;6.68;;;9.90;99.90;;;;;;5054634;28;20021;-40
2021/12/01 00:04:31;;;;;;;15.82;6.72;;;9.90;99.90;;;;;;5053492;28;20029;-41
2021/12/01 00:06:56;;;;;;;18.20;6.65;;;9.90;99.90;;;;;;5053147;28;20053;-39
2021/12/01 00:09:22;;;;;;;17.13;7.00;;;9.90;99.90;;;;;;5052973;28;20043;-41
2021/12/01 00:11:47;;;;;;;19.33;8.02;;;9.90;99.90;;;;;;5053474;28;20361;-41
2021/12/01 00:14:13;;;;;;;13.60;6.65;;;9.90;99.90;;;;;;5053047;28;20527;-41
2021/12/01 00:16:39;;;;;;;12.60;6.85;;;9.90;99.90;;;;;;5053379;28;20174;-42
2021/12/01 00:19:04;;;;;;;18.35;7.38;;;9.90;99.90;;;;;;5053418;28;20388;-40
2021/12/01 00:21:30;;;;;;;17.30;7.88;;;10.00;99.90;;;;;;5052836;28;20092;-41
2021/12/01 00:23:55;;;;;;;15.55;7.88;;;10.00;99.90;;;;;;5053362;28;20049;-40
2021/12/01 00:26:21;;;;;;;16.38;7.82;;;10.10;99.90;;;;;;5053330;28;20024;-40
2021/12/01 00:28:47;;;;;;;17.33;7.15;;;10.00;99.90;;;;;;5054106;28;20033;-39
2021/12/01 00:31:12;;;;;;;14.23;6.82;;;10.00;99.90;;;;;;5073365;28;20025;-40
2021/12/01 00:33:41;;;;;;;14.20;7.45;;;10.10;99.90;;;;;;5073373;28;20063;-41
2021/12/01 00:36:08;;;;;;;16.20;7.57;;;10.00;99.90;;;;;;5072641;28;20021;-41
2021/12/01 00:38:35;;;;;;;17.95;8.63;;;10.10;99.90;;;;;;5073076;28;20032;-42
2021/12/01 00:41:03;;;;;;;20.30;8.82;;;10.10;99.90;;;;;;5073042;28;20021;-41
2021/12/01 00:43:28;;;;;;;22.27;8.10;;;10.10;99.90;;;;;;5072666;28;20020;-40
2021/12/01 00:45:59;;;;;;;16.13;7.90;;;10.10;99.90;;;;;;5073011;28;20351;-41
2021/12/01 00:48:26;;;;;;;16.80;8.02;;;10.10;99.90;;;;;;5071734;28;20036;-42
2021/12/01 00:50:53;;;;;;;17.40;7.93;;;10.10;99.90;;;;;;5052916;28;20116;-41
2021/12/01 00:53:18;;;;;;;22.80;7.53;;;10.10;99.90;;;;;;5052900;28;20468;-40
2021/12/01 00:55:45;;;;;;;20.38;9.10;;;10.20;99.90;;;;;;5051984;28;20056;-39
2021/12/01 00:58:12;;;;;;;17.13;7.93;;;10.10;99.90;;;;;;5052917;28;20033;-39
2021/12/01 01:00:39;;;;;;;17.63;8.55;;;10.20;99.90;;;;;;5052727;28;20419;-40
2021/12/01 01:03:05;;;;;;;17.50;6.60;;;10.20;99.90;;;;;;5052343;28;20017;-40
2021/12/01 01:05:31;;;;;;;18.77;7.60;;;10.20;99.90;;;;;;5052727;28;20025;-41
2021/12/01 01:07:56;;;;;;;17.02;8.15;;;10.20;99.90;;;;;;5052677;28;20352;-40
2021/12/01 01:18:25;;;;;;;16.55;7.50;;;10.30;99.90;;;;;;5052195;28;20127;-39
2021/12/01 01:20:51;;;;;;;21.20;8.15;;;10.30;99.90;;;;;;5055011;28;20024;-40
2021/12/01 01:23:17;;;;;;;12.65;6.85;;;10.30;99.90;;;;;;5056797;28;20096;-41
2021/12/01 01:25:43;;;;;;;16.52;8.18;;;10.30;99.90;;;;;;5056118;28;20784;-41
2021/12/01 01:28:08;;;;;;;15.20;7.25;;;10.30;99.90;;;;;;5056702;28;20052;-39
2021/12/01 01:30:34;;;;;;;14.75;7.55;;;10.30;99.90;;;;;;5056492;28;20353;-39
2021/12/01 01:33:00;;;;;;;14.95;7.95;;;10.30;99.90;;;;;;5055993;28;20027;-40
2021/12/01 01:35:26;;;;;;;19.45;8.70;;;10.30;99.90;;;;;;5056452;28;20018;-41
2021/12/01 01:37:51;;;;;;;14.85;7.13;;;10.30;99.90;;;;;;5055770;28;20376;-39
2021/12/01 01:40:18;;;;;;;16.75;6.93;;;10.20;99.90;;;;;;5056472;28;20072;-39
2021/12/01 01:42:44;;;;;;;13.75;6.07;;;10.20;99.90;;;;;;5062335;28;20052;-40
2021/12/01 01:45:10;;;;;;;14.15;6.63;;;10.20;99.90;;;;;;5075565;28;20025;-38
2021/12/01 01:47:46;;;;;;;16.35;8.00;;;10.20;99.90;;;;;;5076185;28;20100;-39
2021/12/01 01:52:39;;;;;;;11.82;6.47;;;10.20;99.90;;;;;;5075656;28;20472;-39
2021/12/01 01:55:05;;;;;;;14.55;6.82;;;10.20;99.90;;;;;;5075945;28;20052;-39
2021/12/01 01:57:31;;;;;;;18.00;7.53;;;10.20;99.90;;;;;;5075992;28;20459;-40
2021/12/01 01:59:57;;;;;;;13.77;6.90;;;10.20;99.90;;;;;;5075369;28;20027;-40
2021/12/01 02:02:22;;;;;;;14.63;7.03;;;10.20;99.90;;;;;;5075995;28;20406;-40
2021/12/01 02:04:48;;;;;;;12.98;5.57;;;10.30;99.90;;;;;;5075725;28;20020;-40
2021/12/01 02:07:14;;;;;;;11.95;5.78;;;10.20;99.90;;;;;;5075530;28;20052;-39
2021/12/01 02:09:39;;;;;;;13.90;6.32;;;10.20;99.90;;;;;;5075622;28;20108;-39
2021/12/01 02:12:06;;;;;;;10.27;5.10;;;10.20;99.90;;;;;;5074086;28;20024;-39
2021/12/01 02:14:31;;;;;;;10.43;4.70;;;10.20;99.90;;;;;;5074449;28;20017;-39
2021/12/01 02:16:58;;;;;;;11.10;4.90;;;10.20;99.90;;;;;;5075669;28;20028;-38
2021/12/01 02:19:23;;;;;;;13.98;6.13;;;10.20;99.90;;;;;;5075839;28;20029;-39
2021/12/01 02:21:49;;;;;;;9.23;4.50;;;10.20;99.90;;;;;;5075104;28;20020;-41
2021/12/01 02:24:19;;;;;;;8.20;4.53;;;10.30;99.90;;;;;;5075651;28;20028;-40
2021/12/01 02:26:49;;;;;;;9.05;4.45;;;10.30;99.90;;;;;;5075522;28;20017;-39
2021/12/01 02:29:17;;;;;;;8.68;3.85;;;10.40;99.90;;;;;;5074934;28;20020;-40
2021/12/01 02:31:44;;;;;;;6.07;3.35;;;10.30;99.90;;;;;;5074794;28;20472;-39
2021/12/01 02:34:18;;;;;;;8.27;3.55;;;10.30;99.90;;;;;;5074866;28;20048;-39
2021/12/01 02:36:48;;;;;;;6.43;3.38;;;10.30;99.90;;;;;;5075397;28;20089;-39
2021/12/01 02:39:16;;;;;;;7.38;3.35;;;10.40;99.90;;;;;;5075405;28;20068;-39
2021/12/01 02:41:43;;;;;;;6.47;3.15;;;10.30;99.90;;;;;;5074416;28;20020;-40
2021/12/01 02:44:10;;;;;;;9.15;3.30;;;10.40;99.90;;;;;;5055354;28;20488;-39
2021/12/01 02:46:37;;;;;;;5.57;2.87;;;10.40;99.90;;;;;;5055254;28;20056;-40
2021/12/01 02:49:03;;;;;;;5.10;2.53;;;10.40;99.90;;;;;;5054782;28;20102;-40
2021/12/01 02:51:31;;;;;;;6.78;2.90;;;10.40;99.90;;;;;;5055112;28;20021;-40
2021/12/01 02:53:58;;;;;;;4.78;2.70;;;10.40;99.90;;;;;;5054886;28;20053;-40
2021/12/01 02:56:28;;;;;;;5.90;2.65;;;10.40;99.90;;;;;;5054534;28;20112;-39
2021/12/01 02:58:56;;;;;;;5.03;2.70;;;10.40;99.90;;;;;;5054893;28;20045;-39
2021/12/01 03:01:23;;;;;;;4.07;2.43;;;10.40;99.90;;;;;;5054925;28;20059;-38
2021/12/01 03:03:50;;;;;;;4.63;2.40;;;10.40;99.90;;;;;;5052931;28;20427;-39
2021/12/01 03:06:18;;;;;;;3.88;2.40;;;10.50;99.90;;;;;;5056102;28;20119;-39
2021/12/01 03:08:45;;;;;;;3.28;2.20;;;10.50;99.90;;;;;;5054560;28;20029;-40
2021/12/01 03:11:12;;;;;;;1.80;1.08;;;10.50;99.90;;;;;;5054293;28;20025;-38
2021/12/01 03:13:38;;;;;;;1.15;0.82;;;10.50;99.90;;;;;;5054684;28;20017;-38
2021/12/01 03:16:05;;;;;;;2.10;1.17;;;10.50;99.90;;;;;;5054665;28;20044;-39
2021/12/01 03:18:30;;;;;;;2.80;1.23;;;10.60;99.90;;;;;;5054090;28;20033;-39
2021/12/01 03:20:57;;;;;;;2.40;1.33;;;10.60;99.90;;;;;;5054590;28;20034;-39
2021/12/01 03:23:23;;;;;;;2.97;1.38;;;10.60;99.90;;;;;;5054041;28;20039;-39
2021/12/01 03:25:49;;;;;;;2.08;0.98;;;10.60;99.90;;;;;;5054406;28;20100;-41
2021/12/01 03:28:16;;;;;;;1.88;0.90;;;10.60;99.90;;;;;;5054474;28;20017;-39
2021/12/01 03:30:42;;;;;;;1.95;0.93;;;10.60;99.90;;;;;;5053920;28;20079;-39
2021/12/01 03:33:13;;;;;;;0.95;0.57;;;10.60;99.90;;;;;;5054247;28;20353;-38
2021/12/01 03:35:41;;;;;;;3.20;0.88;;;10.60;99.90;;;;;;5058246;28;20471;-40
2021/12/01 03:38:07;;;;;;;3.25;0.85;;;10.50;99.90;;;;;;5053605;28;20040;-43
2021/12/01 03:40:33;;;;;;;7.68;1.10;;;10.50;99.90;;;;;;5054137;28;20037;-39
2021/12/01 03:42:59;;;;;;;5.25;1.50;;;10.50;99.90;;;;;;5053802;28;20499;-42
2021/12/01 03:45:25;;;;;;;6.00;2.03;;;10.50;99.90;;;;;;5052832;28;20025;-45
2021/12/01 03:47:51;;;;;;;3.38;1.42;;;10.50;99.90;;;;;;5054132;28;20052;-41
2021/12/01 03:50:17;;;;;;;1.30;0.85;;;10.40;99.90;;;;;;5054057;28;20017;-41
2021/12/01 03:52:42;;;;;;;3.20;1.20;;;10.40;99.90;;;;;;5053432;28;20029;-43
2021/12/01 03:55:09;;;;;;;2.22;1.23;;;10.40;99.90;;;;;;5066964;28;20055;-43
2021/12/01 03:57:34;;;;;;;3.75;1.13;;;10.40;99.90;;;;;;5073657;28;20036;-40
2021/12/01 04:00:00;;;;;;;5.03;1.13;;;10.40;99.90;;;;;;5073305;28;20142;-42
2021/12/01 04:02:27;;;;;;;2.47;1.30;;;10.40;99.90;;;;;;5073676;28;20050;-41
2021/12/01 04:04:52;;;;;;;2.97;1.10;;;10.40;99.90;;;;;;5073697;28;20021;-41
2021/12/01 04:07:18;;;;;;;3.08;1.35;;;10.40;99.90;;;;;;5073098;28;20016;-40
2021/12/01 04:09:45;;;;;;;3.13;1.35;;;10.40;99.90;;;;;;5073506;28;20021;-40
2021/12/01 04:12:11;;;;;;;3.42;1.58;;;10.40;99.90;;;;;;5073522;28;20499;-40
2021/12/01 04:14:37;;;;;;;3.00;1.33;;;10.40;99.90;;;;;;5061180;28;20484;-41
2021/12/01 04:17:04;;;;;;;5.55;1.80;;;10.40;99.90;;;;;;5053441;28;20036;-40
2021/12/01 04:19:29;;;;;;;3.33;1.30;;;10.40;99.90;;;;;;5052779;28;20028;-44
2021/12/01 04:21:55;;;;;;;1.77;1.30;;;10.30;99.90;;;;;;5053586;28;20025;-41
2021/12/01 04:24:21;;;;;;;2.35;1.45;;;10.30;99.90;;;;;;5053379;28;20025;-40
2021/12/01 04:26:47;;;;;;;2.90;2.60;;;10.30;99.90;;;;;;5052735;28;20104;-43
2021/12/01 04:29:12;;;;;;;6.32;1.67;;;10.30;99.90;;;;;;5053343;28;20112;-41
2021/12/01 04:31:40;;;;;;;2.75;1.40;;;10.30;99.90;;;;;;5053112;28;20024;-42
2021/12/01 04:34:06;;;;;;;7.70;1.70;;;10.30;99.90;;;;;;5061696;28;20069;-39
2021/12/01 04:36:34;;;;;;;2.72;1.40;;;10.30;99.90;;;;;;5073194;28;20052;-42
2021/12/01 04:39:03;;;;;;;3.05;1.55;;;10.30;99.90;;;;;;5073262;28;20119;-42
2021/12/01 04:41:30;;;;;;;2.53;1.67;;;10.30;99.90;;;;;;5071217;28;20020;-39
2021/12/01 04:43:59;;;;;;;2.72;1.60;;;10.30;99.90;;;;;;5053111;28;20032;-39
2021/12/01 04:46:25;;;;;;;6.25;1.80;;;10.30;99.90;;;;;;5053011;28;20031;-40
2021/12/01 04:48:50;;;;;;;2.55;1.48;;;10.20;99.90;;;;;;5052479;28;20100;-42
2021/12/01 04:51:17;;;;;;;2.50;1.63;;;10.20;99.90;;;;;;5053005;28;20041;-39
2021/12/01 04:53:43;;;;;;;2.08;1.30;;;10.20;99.90;;;;;;5052606;28;20028;-40
2021/12/01 04:56:09;;;;;;;2.15;1.52;;;10.20;99.90;;;;;;5052262;28;20101;-40
2021/12/01 04:58:35;;;;;;;2.47;1.60;;;10.20;99.90;;;;;;5068792;28;20120;-41
2021/12/01 05:01:01;;;;;;;2.13;1.35;;;10.20;99.90;;;;;;5072935;28;20100;-42
2021/12/01 05:03:27;;;;;;;2.53;1.42;;;10.20;99.90;;;;;;5072365;28;20563;-41
2021/12/01 05:05:53;;;;;;;3.25;1.83;;;10.20;99.90;;;;;;5072837;28;20100;-40
2021/12/01 05:08:20;;;;;;;2.33;1.50;;;10.10;99.90;;;;;;5072956;28;20031;-41
2021/12/01 05:10:46;;;;;;;2.28;1.30;;;10.10;99.90;;;;;;5072331;28;20025;-40
2021/12/01 05:13:11;;;;;;;1.52;1.23;;;10.10;99.90;;;;;;5072926;28;20040;-42
2021/12/01 05:15:37;;;;;;;1.58;1.08;;;10.10;99.90;;;;;;5072652;28;20617;-42
2021/12/01 05:18:03;;;;;;;2.53;1.20;;;10.00;99.90;;;;;;5072124;28;20128;-40
2021/12/01 05:20:28;;;;;;;1.67;1.17;;;10.00;99.90;;;;;;5072679;28;20028;-41
2021/12/01 05:22:54;;;;;;;2.20;1.02;;;10.00;99.90;;;;;;5072188;28;20020;-42
2021/12/01 05:25:20;;;;;;;2.20;1.23;;;10.00;99.90;;;;;;5072794;28;20017;-41
2021/12/01 05:27:45;;;;;;;1.52;0.93;;;10.00;99.90;;;;;;5061204;28;20045;-41
2021/12/01 05:30:11;;;;;;;1.55;1.13;;;10.00;99.90;;;;;;5052173;28;20478;-40
2021/12/01 05:32:36;;;;;;;1.73;1.00;;;10.00;99.90;;;;;;5052576;28;20580;-40
2021/12/01 05:35:03;;;;;;;2.42;1.20;;;10.00;99.90;;;;;;5052634;28;20506;-42
2021/12/01 05:37:29;;;;;;;2.15;1.33;;;9.90;99.90;;;;;;5051923;28;20028;-42
2021/12/01 05:39:54;;;;;;;1.75;1.17;;;9.90;99.90;;;;;;5052470;28;20025;-40
2021/12/01 05:42:20;;;;;;;2.95;1.15;;;9.90;99.90;;;;;;5052522;28;20514;-40
2021/12/01 05:44:46;;;;;;;3.35;1.40;;;9.90;99.90;;;;;;5051907;28;20059;-40
2021/12/01 05:47:12;;;;;;;2.65;1.15;;;9.90;99.90;;;;;;5052428;28;20025;-42
2021/12/01 05:49:41;;;;;;;1.40;1.00;;;9.80;99.90;;;;;;5052313;28;20064;-41
2021/12/01 05:52:09;;;;;;;1.52;1.20;;;9.80;99.90;;;;;;5051998;28;20025;-40
2021/12/01 05:54:35;;;;;;;2.28;1.13;;;9.90;99.90;;;;;;5052127;28;20053;-43
2021/12/01 05:57:00;;;;;;;1.50;0.98;;;9.80;99.90;;;;;;5061528;28;20057;-38
2021/12/01 05:59:26;;;;;;;1.80;1.10;;;9.80;99.90;;;;;;5092125;28;20107;-39
2021/12/01 06:01:51;;;;;;;1.83;1.10;;;9.70;99.90;;;;;;5065670;28;20041;-40
2021/12/01 06:04:17;;;;;;;1.63;0.88;;;9.70;99.90;;;;;;5052355;28;20021;-41
2021/12/01 06:06:42;;;;;;;1.88;1.30;;;9.70;99.90;;;;;;5052061;28;20392;-39
2021/12/01 06:09:08;;;;;;;2.15;1.33;;;9.70;99.90;;;;;;5055930;28;20021;-39
2021/12/01 06:11:33;;;;;;;1.67;0.90;;;9.70;99.90;;;;;;5055827;28;20071;-39
2021/12/01 06:13:59;;;;;;;1.50;0.85;;;9.70;99.90;;;;;;5055291;28;20013;-39
2021/12/01 06:16:25;;;;;;;2.53;1.00;;;9.60;99.90;;;;;;5055725;28;20483;-39
2021/12/01 06:18:50;;;;;;;1.05;0.90;;;9.60;99.90;;;;;;5055067;28;20064;-41
2021/12/01 06:21:17;;;;;;;1.10;0.80;;;9.60;99.90;;;;;;5053944;28;20488;-38
2021/12/01 06:23:43;;;;;;;1.63;1.08;;;9.60;99.90;;;;;;5053457;28;20100;-43
2021/12/01 06:26:09;;;;;;;1.27;0.90;;;9.50;99.90;;;;;;5054313;28;20029;-40
2021/12/01 06:28:35;;;;;;;1.20;0.90;;;9.50;99.90;;;;;;5061833;28;20468;-40
2021/12/01 06:31:01;;;;;;;1.42;0.98;;;9.50;99.90;;;;;;5054537;28;20032;-39
2021/12/01 06:33:26;;;;;;;1.30;1.10;;;9.50;99.90;;;;;;5054364;28;20104;-41
2021/12/01 06:35:52;;;;;;;1.40;1.00;;;9.50;99.90;;;;;;5054408;28;20025;-45
2021/12/01 06:38:19;;;;;;;1.33;0.80;;;9.60;99.90;;;;;;5054770;28;20024;-40
2021/12/01 06:40:48;;;;;;;1.50;1.00;;;9.50;99.90;;;;;;5054117;28;20100;-42
2021/12/01 06:43:13;;;;;;;1.80;1.00;;;9.50;99.90;;;;;;5054603;28;20111;-41
2021/12/01 06:45:39;;;;;;;1.45;1.08;;;9.50;99.90;;;;;;5054507;28;20096;-40
2021/12/01 06:48:06;;;;;;;2.05;1.00;;;9.50;99.90;;;;;;5053662;28;20052;-40
2021/12/01 06:50:32;;;;;;;2.03;1.08;;;9.50;99.90;;;;;;5054690;28;20025;-39
2021/12/01 06:52:57;;;;;;;1.98;1.20;;;9.50;99.90;;;;;;5064287;28;20490;-39
2021/12/01 06:55:23;;;;;;;2.85;1.20;;;9.50;99.90;;;;;;5062496;28;20127;-41
2021/12/01 06:57:49;;;;;;;3.40;1.38;;;9.50;99.90;;;;;;5062565;28;20017;-41
2021/12/01 07:00:16;;;;;;;1.33;0.80;;;9.40;99.90;;;;;;5074391;28;20020;-40
2021/12/01 07:02:43;;;;;;;1.60;1.05;;;9.40;99.90;;;;;;5067112;28;20028;-40
2021/12/01 07:05:09;;;;;;;0.60;0.60;;;9.40;99.90;;;;;;5054205;28;20017;-39
2021/12/01 07:07:36;;;;;;;1.33;0.90;;;9.40;99.90;;;;;;5054119;28;20013;-40
2021/12/01 07:10:03;;;;;;;1.55;0.93;;;9.40;99.90;;;;;;5059904;28;20036;-40
2021/12/01 07:12:29;;;;;;;2.03;0.90;;;9.40;99.90;;;;;;5059346;28;20052;-41
2021/12/01 07:14:54;;;;;;;1.95;1.23;;;9.40;99.90;;;;;;5057516;28;20025;-40
2021/12/01 07:17:20;;;;;;;2.15;1.15;;;9.40;99.90;;;;;;5060274;28;20018;-39
2021/12/01 07:19:48;;;;;;;1.92;1.13;;;9.40;99.90;;;;;;5073586;28;20024;-41
2021/12/01 07:22:14;;;;;;;2.50;1.27;;;9.40;99.90;;;;;;5065340;28;20032;-40
2021/12/01 07:24:39;;;;;;;1.10;0.85;;;9.30;99.90;;;;;;5053403;28;20013;-40
2021/12/01 07:27:05;;;;;;;0.85;0.68;;;9.30;99.90;;;;;;5053459;28;20017;-41
2021/12/01 07:29:31;;;;;;;1.00;0.80;;;9.30;99.90;;;;;;5053386;28;20048;-41
2021/12/01 07:31:56;;;;;;;1.30;0.93;;;9.30;99.90;;;;;;5053375;28;20021;-39
2021/12/01 07:34:22;;;;;;;0.73;0.65;;;9.30;99.90;;;;;;5061932;28;20448;-39
2021/12/01 07:36:48;;;;;;;1.83;1.05;;;9.30;99.90;;;;;;5072807;28;20082;-39
2021/12/01 07:39:14;;;;;;;2.90;1.38;;;9.30;99.90;;;;;;5073472;28;20039;-39
2021/12/01 07:41:39;;;;;;;1.50;1.05;;;9.30;99.90;;;;;;5073445;28;20021;-38
2021/12/01 07:44:05;;;;;;;1.63;0.90;;;9.30;99.90;;;;;;5072648;28;20021;-41
2021/12/01 07:46:31;;;;;;;1.50;0.95;;;9.40;99.90;;;;;;5073275;28;20024;-42
2021/12/01 07:48:56;;;;;;;1.60;1.20;;;9.30;99.90;;;;;;5077844;28;20380;-41
2021/12/01 07:51:22;;;;;;;1.67;1.00;;;9.30;99.90;;;;;;5081069;28;20021;-38
2021/12/01 07:53:47;;;;;;;2.15;1.42;;;9.30;99.90;;;;;;5083083;28;20095;-38
2021/12/01 07:56:13;;;;;;;1.88;0.93;;;9.30;99.90;;;;;;5082734;28;20027;-39
2021/12/01 07:58:39;;;;;;;1.67;1.05;;;9.30;99.90;;;;;;5081288;28;20031;-41
2021/12/01 08:01:04;;;;;;;1.95;1.10;;;9.30;99.90;;;;;;5083507;28;20028;-40
2021/12/01 08:03:30;;;;;;;2.22;1.30;;;9.30;99.90;;;;;;5073199;28;20025;-40
2021/12/01 08:05:56;;;;;;;1.88;1.15;;;9.30;99.90;;;;;;5060869;28;20029;-40
2021/12/01 08:08:21;;;;;;;1.98;1.20;;;9.30;99.90;;;;;;5062546;28;20016;-40
2021/12/01 08:10:47;;;;;;;1.13;0.75;;;9.30;99.90;;;;;;5069787;28;20024;-41
2021/12/01 08:13:13;;;;;;;2.40;1.00;;;9.30;99.90;;;;;;5072271;28;20379;-42
2021/12/01 08:15:38;;;;;;;2.10;1.40;;;9.30;99.90;;;;;;5072913;28;20020;-38
2021/12/01 08:18:04;;;;;;;4.40;1.20;;;9.30;99.90;;;;;;5072478;28;20094;-39
2021/12/01 08:20:29;;;;;;;1.60;0.98;;;9.40;99.90;;;;;;5072263;28;20070;-41
2021/12/01 08:22:55;;;;;;;2.47;1.48;;;9.40;99.90;;;;;;5072482;28;20359;-42
2021/12/01 08:25:22;;;;;;;3.58;1.70;;;9.40;99.90;;;;;;5072725;28;20028;-42
2021/12/01 08:27:48;;;;;;;2.83;1.73;;;9.40;99.90;;;;;;5071012;28;20463;-39
2021/12/01 08:30:14;;;;;;;1.65;1.17;;;9.50;99.90;;;;;;5062111;28;20036;-39
2021/12/01 08:32:45;;;;;;;3.38;1.77;;;9.50;99.90;;;;;;5069043;28;20025;-41
2021/12/01 08:35:12;;;;;;;2.28;1.50;;;9.50;99.90;;;;;;5068225;28;20345;-40
2021/12/01 08:37:37;;;;;;;3.65;1.83;;;9.50;99.90;;;;;;5052605;28;20035;-39
2021/12/01 08:40:03;;;;;;;5.82;1.75;;;9.50;99.90;;;;;;5051638;28;20041;-40
2021/12/01 08:42:29;;;;;;;2.72;1.25;;;9.50;99.90;;;;;;5052647;28;20017;-39
2021/12/01 08:44:54;;;;;;;2.42;1.25;;;9.50;99.90;;;;;;5059397;28;20103;-39
2021/12/01 08:47:24;;;;;;;2.85;1.50;;;9.50;99.90;;;;;;5078455;28;20016;-44
2021/12/01 08:49:50;;;;;;;2.42;1.55;;;9.50;99.90;;;;;;5081159;28;20028;-41
2021/12/01 08:52:16;;;;;;;2.28;1.48;;;9.50;99.90;;;;;;5084346;28;20024;-40
2021/12/01 08:54:42;;;;;;;2.75;1.92;;;9.60;99.90;;;;;;5079943;28;20052;-41
2021/12/01 08:57:07;;;;;;;1.27;0.98;;;9.50;99.90;;;;;;5075326;28;20054;-41
2021/12/01 08:59:34;;;;;;;3.10;1.20;;;9.60;99.90;;;;;;5072401;28;20021;-42
2021/12/01 09:02:02;;;;;;;2.33;1.10;;;9.60;99.90;;;;;;5073893;28;20063;-39
2021/12/01 09:04:28;;;;;;;1.67;1.08;;;9.60;99.90;;;;;;5081479;28;20459;-44
2021/12/01 09:06:55;;;;;;;3.03;1.58;;;9.60;99.90;;;;;;5079161;28;20036;-40
2021/12/01 09:09:21;;;;;;;2.45;0.93;;;9.60;99.90;;;;;;5081434;28;20031;-41
2021/12/01 09:11:48;;;;;;;1.17;0.80;;;9.60;99.90;;;;;;5080296;28;20016;-41
2021/12/01 09:14:14;;;;;;;2.80;1.60;;;9.60;99.90;;;;;;5080947;28;20020;-45
2021/12/01 09:16:44;;;;;;;3.33;1.42;;;9.50;99.90;;;;;;5081502;28;20076;-42
2021/12/01 09:19:10;;;;;;;1.17;0.60;;;9.50;99.90;;;;;;5080670;28;20025;-40
2021/12/01 09:21:36;;;;;;;3.22;0.80;;;9.60;99.90;;;;;;5076025;28;20025;-41
2021/12/01 09:24:02;;;;;;;1.35;0.90;;;9.60;99.90;;;;;;5078399;28;20077;-40
2021/12/01 09:26:28;;;;;;;4.22;1.23;;;9.60;99.90;;;;;;5081514;28;20025;-40
2021/12/01 09:28:54;;;;;;;6.03;1.20;;;9.60;99.90;;;;;;5080421;28;20058;-42
2021/12/01 09:31:20;;;;;;;0.95;0.50;;;9.60;99.90;;;;;;5076723;28;20067;-40
2021/12/01 09:33:45;;;;;;;3.85;1.48;;;9.60;99.90;;;;;;5070920;28;20035;-42
2021/12/01 09:36:11;;;;;;;3.15;0.90;;;9.60;99.90;;;;;;5070317;28;20009;-42
2021/12/01 09:38:37;;;;;;;1.88;0.60;;;9.60;99.90;;;;;;5070942;28;20357;-42
2021/12/01 09:41:03;;;;;;;2.13;0.60;;;9.60;99.90;;;;;;5073540;28;20103;-41
2021/12/01 09:43:31;;;;;;;0.43;0.35;;;9.60;99.90;;;;;;5084371;28;20448;-41
2021/12/01 09:45:58;;;;;;;3.95;0.45;;;9.60;99.90;;;;;;5065284;28;20451;-41
2021/12/01 09:48:25;;;;;;;1.27;0.47;;;9.70;99.90;;;;;;5080677;28;20028;-39
2021/12/01 09:50:50;;;;;;;0.30;0.30;;;9.70;99.90;;;;;;5078427;28;20483;-46
2021/12/01 09:53:16;;;;;;;2.63;0.45;;;9.70;99.90;;;;;;5076707;28;20047;-45
2021/12/01 09:55:43;;;;;;;2.00;0.40;;;9.60;99.90;;;;;;5078355;28;20053;-42
2021/12/01 09:58:18;;;;;;;0.20;0.20;;;9.70;99.90;;;;;;5076608;28;20089;-40
2021/12/01 10:00:47;;;;;;;0.98;0.50;;;9.60;99.90;;;;;;5080405;28;20048;-52
2021/12/01 10:03:13;;;;;;;5.57;0.85;;;9.60;99.90;;;;;;5074488;28;20038;-42
2021/12/01 10:05:52;;;;;;;0.15;0.15;;;9.50;99.90;;;;;;5073951;28;20029;-40
2021/12/01 10:08:24;;;;;;;2.40;0.60;;;9.30;99.90;;;;;;5080142;28;20020;-40
2021/12/01 10:10:52;;;;;;;4.53;0.80;;;9.30;99.90;;;;;;5078454;28;20518;-39
2021/12/01 10:13:27;;;;;;;1.80;0.70;;;9.20;99.90;;;;;;5074623;28;20028;-40
2021/12/01 10:15:54;;;;;;;3.45;0.77;;;9.30;99.90;;;;;;5073188;28;20270;-40
2021/12/01 10:18:20;;;;;;;3.33;0.50;;;9.30;99.90;;;;;;5072610;28;20083;-43
2021/12/01 10:21:04;;;;;;;6.22;0.80;;;9.30;99.90;;;;;;5073273;28;20025;-43
2021/12/01 10:23:31;;;;;;;4.93;0.88;;;9.30;99.90;;;;;;5073712;28;20535;-41
2021/12/01 10:26:09;;;;;;;1.45;0.22;;;9.40;99.90;;;;;;5072284;28;20024;-41
2021/12/01 10:28:41;;;;;;;5.63;0.82;;;9.40;99.90;;;;;;5081707;28;20016;-43
2021/12/01 10:31:07;;;;;;;3.45;0.52;;;9.40;99.90;;;;;;5078937;28;20020;-41
2021/12/01 10:33:33;;;;;;;1.60;0.40;;;9.40;99.90;;;;;;5072786;28;20024;-41
2021/12/01 10:36:01;;;;;;;7.53;1.05;;;9.40;99.90;;;;;;5077150;28;20032;-40
2021/12/01 10:38:32;;;;;;;5.60;0.60;;;9.40;99.90;;;;;;5078477;28;20024;-40
2021/12/01 10:41:03;;;;;;;1.48;1.02;;;9.40;99.90;;;;;;5070953;28;20024;-41
2021/12/01 10:43:42;;;;;;;0.73;0.28;;;9.30;99.90;;;;;;5073067;28;20067;-40
2021/12/01 10:46:10;;;;;;;2.92;1.27;;;9.30;99.90;;;;;;5065418;28;20056;-39
2021/12/01 10:48:36;;;;;;;;;;;9.30;99.90;;;;;;5073523;28;20020;-41
2021/12/01 10:51:01;;;;;;;2.78;0.50;;;9.30;99.90;;;;;;5073141;28;19943;-41
2021/12/01 10:53:28;;;;;;;10.63;0.82;;;9.40;99.90;;;;;;5071965;28;20031;-40
2021/12/01 10:55:57;;;;;;;9.07;1.00;;;9.40;99.90;;;;;;5072382;28;20045;-41
2021/12/01 10:58:36;;;;;;;4.68;0.65;;;9.50;99.90;;;;;;5076901;28;20122;-41
2021/12/01 11:01:04;;;;;;;1.75;0.82;;;9.50;99.90;;;;;;5076736;28;20020;-42
2021/12/01 11:03:32;;;;;;;0.30;0.30;;;9.50;99.90;;;;;;5080660;28;20530;-40
2021/12/01 11:06:13;;;;;;;5.97;0.43;;;9.60;99.90;;;;;;5077944;28;20028;-40
2021/12/01 11:08:41;;;;;;;2.40;0.45;;;9.50;99.90;;;;;;5077167;28;20023;-40
2021/12/01 11:11:13;;;;;;;2.40;0.50;;;9.50;99.90;;;;;;5074832;28;20028;-40
2021/12/01 11:13:44;;;;;;;5.72;1.15;;;9.50;99.90;;;;;;5072615;28;20535;-40
2021/12/01 11:16:12;;;;;;;1.80;0.80;;;9.50;99.90;;;;;;5072119;28;20040;-39
2021/12/01 11:18:41;;;;;;;6.45;0.77;;;9.40;99.90;;;;;;5067456;28;20025;-42
2021/12/01 11:21:13;;;;;;;4.30;0.75;;;9.40;99.90;;;;;;5072396;28;20055;-42
2021/12/01 11:23:44;;;;;;;3.58;0.82;;;9.30;99.90;;;;;;5072231;28;20464;-42
2021/12/01 11:26:19;;;;;;;1.25;0.50;;;9.30;99.90;;;;;;5072408;28;20418;-40
2021/12/01 11:28:57;;;;;;;3.00;0.40;;;9.30;99.90;;;;;;5071809;28;20600;-39
2021/12/01 11:31:33;;;;;;;0.83;0.43;;;9.30;99.90;;;;;;5072473;28;20044;-40
2021/12/01 11:34:01;;;;;;;2.92;0.60;;;9.40;99.90;;;;;;5063613;28;20313;-40
2021/12/01 11:36:33;;;;;;;1.13;0.70;;;9.30;99.90;;;;;;5080122;28;20084;-39
2021/12/01 11:39:01;;;;;;;2.00;0.73;;;9.30;99.90;;;;;;5079316;28;20538;-40
2021/12/01 11:41:28;;;;;;;8.15;1.17;;;9.20;99.90;;;;;;5079512;28;20028;-40
2021/12/01 11:43:55;;;;;;;8.10;1.38;;;9.20;99.90;;;;;;5078391;28;20103;-41
2021/12/01 11:46:21;;;;;;;3.20;0.70;;;9.20;99.90;;;;;;5080794;28;20013;-40
2021/12/01 11:48:50;;;;;;;3.80;0.40;;;9.30;99.90;;;;;;5078990;28;20020;-43
2021/12/01 11:51:18;;;;;;;4.53;0.90;;;9.30;99.90;;;;;;5076923;28;20021;-40
2021/12/01 11:54:04;;;;;;;1.98;0.40;;;9.30;99.90;;;;;;5078515;28;20411;-39
2021/12/01 11:56:34;;;;;;;2.58;1.60;;;9.30;99.90;;;;;;5076111;28;20032;-41
2021/12/01 11:59:05;;;;;;;2.38;0.52;;;9.20;99.90;;;;;;5079657;28;20032;-42
2021/12/01 12:01:37;;;;;;;5.40;0.75;;;9.10;99.90;;;;;;5075357;28;20387;-42
2021/12/01 12:04:05;;;;;;;4.07;0.88;;;9.10;99.90;;;;;;5076252;28;20021;-40
2021/12/01 12:06:33;;;;;;;3.72;1.00;;;9.00;99.90;;;;;;5075327;28;20032;-42
2021/12/01 12:09:02;;;;;;;5.07;1.10;;;8.90;99.90;;;;;;5078176;28;20062;-42
2021/12/01 12:11:47;;;;;;;4.38;1.02;;;8.90;99.90;;;;;;5088915;28;20027;-42
2021/12/01 12:14:31;;;;;;;15.43;1.55;;;8.90;99.90;;;;;;5081473;28;20024;-44
2021/12/01 12:17:21;;;;;;;9.27;1.27;;;8.80;99.90;;;;;;5075399;28;20029;-43
2021/12/01 12:20:26;;;;;;;4.25;1.30;;;8.80;99.90;;;;;;5077375;28;20031;-42
2021/12/01 12:22:59;;;;;;;3.72;0.45;;;8.80;99.90;;;;;;5085653;28;20102;-44
2021/12/01 12:25:45;;;;;;;3.95;1.05;;;8.80;99.90;;;;;;5074844;28;20101;-44
2021/12/01 12:28:40;;;;;;;1.17;0.52;;;8.70;99.90;;;;;;5074316;28;20186;-46
2021/12/01 12:31:25;;;;;;;5.95;1.20;;;8.70;99.90;;;;;;5070712;28;20380;-43
2021/12/01 12:33:54;;;;;;;5.85;0.82;;;8.70;99.90;;;;;;5070097;28;20387;-43
2021/12/01 12:36:40;;;;;;;8.00;1.15;;;8.70;99.90;;;;;;5073067;28;20023;-44
2021/12/01 12:39:09;;;;;;;8.07;1.90;;;8.70;99.90;;;;;;5071963;28;20621;-41
2021/12/01 12:41:55;;;;;;;7.88;1.25;;;8.70;99.90;;;;;;5071085;28;20106;-43
2021/12/01 12:44:44;;;;;;;3.60;0.60;;;8.70;99.90;;;;;;5061084;28;20033;-43
2021/12/01 12:47:14;;;;;;;3.65;1.08;;;8.70;99.90;;;;;;5070280;28;20027;-43
2021/12/01 12:49:41;;;;;;;4.35;1.00;;;8.60;99.90;;;;;;5071011;28;20024;-44
2021/12/01 12:52:25;;;;;;;4.72;0.77;;;8.40;99.90;;;;;;5071007;28;20024;-42
2021/12/01 12:55:09;;;;;;;0.70;0.25;;;8.30;99.90;;;;;;5069812;28;20059;-43
2021/12/01 12:57:59;;;;;;;12.15;2.03;;;8.30;99.90;;;;;;5070433;28;20108;-42
2021/12/01 13:00:30;;;;;;;3.10;0.57;;;8.30;99.90;;;;;;5070557;28;20086;-48
2021/12/01 13:02:59;;;;;;;1.65;0.85;;;8.30;99.90;;;;;;5070779;28;20025;-42
2021/12/01 13:05:43;;;;;;;7.13;0.95;;;8.30;99.90;;;;;;5070831;28;20029;-42